createdAt,value
2018-12-01T00:02:10.136Z,47.55
2018-12-01T00:04:51.479Z,48.23
2018-12-01T00:07:30.717Z,50.95
2018-12-01T00:10:10.508Z,50.33
2018-12-01T00:12:49.750Z,53.30
2018-12-01T00:15:31.063Z,54.25
2018-12-01T00:18:11.457Z,48.38
2018-12-01T00:20:50.972Z,49.93
2018-12-01T00:23:30.315Z,51.42
2018-12-01T00:26:10.327Z,57.48
2018-12-01T00:28:49.619Z,56.28
2018-12-01T00:31:31.138Z,52.50
2018-12-01T00:34:09.402Z,52.65
2018-12-01T00:36:51.421Z,52.35
2018-12-01T00:39:31.436Z,57.50
2018-12-01T00:42:11.901Z,59.77
2018-12-01T00:44:49.982Z,53.78
2018-12-01T00:47:27.407Z,57.85
2018-12-01T00:50:04.635Z,62.17
2018-12-01T00:52:42.326Z,62.27
2018-12-01T00:55:24.637Z,57.30
2018-12-01T00:58:01.381Z,52.40
2018-12-01T01:00:37.815Z,51.48
2018-12-01T01:03:21.787Z,52.78
2018-12-01T01:05:57.002Z,53.60
2018-12-01T01:08:36.890Z,56.48
2018-12-01T01:11:16.356Z,52.08
2018-12-01T01:13:57.895Z,53.90
2018-12-01T01:16:39.612Z,52.90
2018-12-01T01:19:18.002Z,54.75
2018-12-01T01:21:55.520Z,55.00
2018-12-01T01:24:33.379Z,53.30
2018-12-01T01:27:12.333Z,57.23
2018-12-01T01:29:53.367Z,64.92
2018-12-01T01:32:33.361Z,58.75
2018-12-01T01:35:12.704Z,59.73
2018-12-01T01:37:51.969Z,60.95
2018-12-01T01:40:30.283Z,65.40
2018-12-01T01:43:10.701Z,56.37
2018-12-01T01:45:49.236Z,61.13
2018-12-01T01:48:29.988Z,50.30
2018-12-01T01:51:08.977Z,58.52
2018-12-01T01:53:51.269Z,54.30
2018-12-01T01:56:29.507Z,60.95
2018-12-01T01:59:08.852Z,49.75
2018-12-01T02:01:49.588Z,55.03
2018-12-01T02:04:28.404Z,52.40
2018-12-01T02:07:04.637Z,50.10
2018-12-01T02:09:44.613Z,57.20
2018-12-01T02:12:23.329Z,51.88
2018-12-01T02:15:03.372Z,62.27
2018-12-01T02:17:44.638Z,53.73
2018-12-01T02:20:24.603Z,54.10
2018-12-01T02:23:04.621Z,55.65
2018-12-01T02:25:41.935Z,56.45
2018-12-01T02:28:23.080Z,57.35
2018-12-01T02:31:01.671Z,59.13
2018-12-01T02:33:42.087Z,74.58
2018-12-01T02:36:20.666Z,58.17
2018-12-01T02:39:00.366Z,59.13
2018-12-01T02:41:39.607Z,70.95
2018-12-01T02:44:21.353Z,66.65
2018-12-01T02:47:02.196Z,76.00
2018-12-01T02:49:41.183Z,61.73
2018-12-01T02:52:21.976Z,63.40
2018-12-01T02:54:59.240Z,62.78
2018-12-01T02:57:38.583Z,76.70
2018-12-01T03:00:19.747Z,64.62
2018-12-01T03:02:59.836Z,62.53
2018-12-01T03:05:39.195Z,75.10
2018-12-01T03:08:19.746Z,71.75
2018-12-01T03:10:59.787Z,79.53
2018-12-01T03:13:38.157Z,71.47
2018-12-01T03:16:16.270Z,72.10
2018-12-01T03:18:56.284Z,69.00
2018-12-01T03:21:36.913Z,69.22
2018-12-01T03:24:15.119Z,73.30
2018-12-01T03:26:54.638Z,59.33
2018-12-01T03:29:34.638Z,67.05
2018-12-01T03:32:14.269Z,73.90
2018-12-01T03:34:53.834Z,76.97
2018-12-01T03:37:34.639Z,68.75
2018-12-01T03:40:12.163Z,67.90
2018-12-01T03:42:50.506Z,75.25
2018-12-01T03:45:31.199Z,76.85
2018-12-01T03:48:10.666Z,79.07
2018-12-01T03:50:49.959Z,70.00
2018-12-01T03:53:28.445Z,75.72
2018-12-01T03:56:04.640Z,70.57
2018-12-01T03:58:43.806Z,77.20
2018-12-01T04:01:24.640Z,76.20
2018-12-01T04:03:57.186Z,72.97
2018-12-01T04:06:35.930Z,79.53
2018-12-01T04:09:30.171Z,75.97
2018-12-01T04:12:09.761Z,85.97
2018-12-01T04:14:41.462Z,64.45
2018-12-01T04:17:18.713Z,71.05
2018-12-01T04:19:53.146Z,69.35
2018-12-01T04:22:28.775Z,76.15
2018-12-01T04:25:08.268Z,72.78
2018-12-01T04:27:44.638Z,67.22
2018-12-01T04:30:23.989Z,74.37
2018-12-01T04:32:59.120Z,76.17
2018-12-01T04:35:34.642Z,64.17
2018-12-01T04:38:08.677Z,71.47
2018-12-01T04:40:49.665Z,79.07
2018-12-01T04:43:29.632Z,70.50
2018-12-01T04:46:08.410Z,82.45
2018-12-01T04:48:42.341Z,66.07
2018-12-01T04:51:19.280Z,70.55
2018-12-01T04:53:59.074Z,72.08
2018-12-01T04:56:38.865Z,74.27
2018-12-01T04:59:18.715Z,72.40
2018-12-01T05:02:04.021Z,77.60
2018-12-01T05:04:44.639Z,70.60
2018-12-01T05:07:14.713Z,94.40
2018-12-01T05:09:43.101Z,71.10
2018-12-01T05:12:14.640Z,73.75
2018-12-01T05:14:42.666Z,74.42
2018-12-01T05:17:10.832Z,75.17
2018-12-01T05:19:39.205Z,86.78
2018-12-01T05:22:07.262Z,80.45
2018-12-01T05:24:35.939Z,91.30
2018-12-01T05:27:14.648Z,100.70
2018-12-01T05:29:52.880Z,68.50
2018-12-01T05:32:31.722Z,81.92
2018-12-01T05:35:10.784Z,92.25
2018-12-01T05:37:50.876Z,74.58
2018-12-01T05:40:19.200Z,100.35
2018-12-01T05:42:51.955Z,75.75
2018-12-01T05:45:28.121Z,81.05
2018-12-01T05:47:58.217Z,90.40
2018-12-01T05:50:28.510Z,82.00
2018-12-01T05:52:58.582Z,67.22
2018-12-01T05:55:30.554Z,68.40
2018-12-01T05:57:57.909Z,66.45
2018-12-01T06:00:30.027Z,73.37
2018-12-01T06:02:58.719Z,78.10
2018-12-01T06:05:32.111Z,73.75
2018-12-01T06:08:08.559Z,81.80
2018-12-01T06:10:41.495Z,61.90
2018-12-01T06:13:10.830Z,52.62
2018-12-01T06:15:44.759Z,68.65
2018-12-01T06:18:24.648Z,63.90
2018-12-01T06:20:52.228Z,73.20
2018-12-01T06:23:20.640Z,72.03
2018-12-01T06:25:57.693Z,82.15
2018-12-01T06:28:25.249Z,78.22
2018-12-01T06:31:02.627Z,75.70
2018-12-01T06:33:36.958Z,75.10
2018-12-01T06:36:07.171Z,72.82
2018-12-01T06:38:41.911Z,68.60
2018-12-01T06:41:10.086Z,72.17
2018-12-01T06:43:46.398Z,79.95
2018-12-01T06:46:18.765Z,76.07
2018-12-01T06:48:49.540Z,74.58
2018-12-01T06:51:24.221Z,80.87
2018-12-01T06:53:56.864Z,83.12
2018-12-01T06:56:25.508Z,86.42
2018-12-01T06:59:03.794Z,77.05
2018-12-01T07:01:43.627Z,80.45
2018-12-01T07:04:23.271Z,87.02
2018-12-01T07:06:52.500Z,65.10
2018-12-01T07:09:24.649Z,72.00
2018-12-01T07:12:00.965Z,73.07
2018-12-01T07:14:34.825Z,75.85
2018-12-01T07:17:09.562Z,80.62
2018-12-01T07:19:47.493Z,63.08
2018-12-01T07:22:15.304Z,69.05
2018-12-01T07:24:44.647Z,63.60
2018-12-01T07:27:24.646Z,71.05
2018-12-01T07:30:03.638Z,65.75
2018-12-01T07:32:43.434Z,70.00
2018-12-01T07:35:23.391Z,62.40
2018-12-01T07:38:01.960Z,71.92
2018-12-01T07:40:41.476Z,73.15
2018-12-01T07:43:20.418Z,77.20
2018-12-01T07:46:02.457Z,68.35
2018-12-01T07:48:41.476Z,67.17
2018-12-01T07:51:21.042Z,74.07
2018-12-01T07:53:59.783Z,68.07
2018-12-01T07:56:39.148Z,69.05
2018-12-01T07:59:18.389Z,64.00
2018-12-01T08:01:55.781Z,59.80
2018-12-01T08:04:34.297Z,68.37
2018-12-01T08:07:13.813Z,53.85
2018-12-01T08:09:52.553Z,59.85
2018-12-01T08:12:32.396Z,54.03
2018-12-01T08:15:12.837Z,67.12
2018-12-01T08:17:52.303Z,54.18
2018-12-01T08:20:32.772Z,50.90
2018-12-01T08:23:14.555Z,54.53
2018-12-01T08:25:53.654Z,61.92
2018-12-01T08:28:34.646Z,58.23
2018-12-01T08:31:06.227Z,54.27
2018-12-01T08:33:41.337Z,48.05
2018-12-01T08:36:14.318Z,45.33
2018-12-01T08:38:42.640Z,47.88
2018-12-01T08:41:15.495Z,44.67
2018-12-01T08:43:48.813Z,47.23
2018-12-01T08:46:25.170Z,56.92
2018-12-01T08:48:53.196Z,48.68
2018-12-01T08:51:27.041Z,40.95
2018-12-01T08:53:58.736Z,45.03
2018-12-01T08:56:28.182Z,46.55
2018-12-01T08:59:06.001Z,50.65
2018-12-01T09:01:40.810Z,46.42
2018-12-01T09:04:20.352Z,40.48
2018-12-01T09:06:52.490Z,55.08
2018-12-01T09:09:29.977Z,40.65
2018-12-01T09:12:09.653Z,44.10
2018-12-01T09:14:40.806Z,45.43
2018-12-01T09:17:21.016Z,45.73
2018-12-01T09:20:00.976Z,42.30
2018-12-01T09:22:40.021Z,40.95
2018-12-01T09:25:20.611Z,35.90
2018-12-01T09:27:57.686Z,52.13
2018-12-01T09:30:36.493Z,37.67
2018-12-01T09:33:11.513Z,43.80
2018-12-01T09:35:50.926Z,39.20
2018-12-01T09:38:30.821Z,42.95
2018-12-01T09:41:12.109Z,45.80
2018-12-01T09:43:51.330Z,44.95
2018-12-01T09:46:33.018Z,44.27
2018-12-01T09:49:10.760Z,44.38
2018-12-01T09:51:50.625Z,43.55
2018-12-01T09:54:30.495Z,53.30
2018-12-01T09:57:10.311Z,48.52
2018-12-01T09:59:51.274Z,47.90
2018-12-01T10:02:29.464Z,39.73
2018-12-01T10:05:08.723Z,37.93
2018-12-01T10:07:48.529Z,42.35
2018-12-01T10:10:28.543Z,40.85
2018-12-01T10:13:07.308Z,39.90
2018-12-01T10:15:47.024Z,43.17
2018-12-01T10:18:25.763Z,36.15
2018-12-01T10:21:06.883Z,41.37
2018-12-01T10:23:46.875Z,36.35
2018-12-01T10:26:26.415Z,44.42
2018-12-01T10:29:06.403Z,38.60
2018-12-01T10:31:46.320Z,42.48
2018-12-01T10:34:26.141Z,29.60
2018-12-01T10:37:04.643Z,34.53
2018-12-01T10:39:44.641Z,30.10
2018-12-01T10:42:22.887Z,37.28
2018-12-01T10:45:01.884Z,36.88
2018-12-01T10:47:41.174Z,39.13
2018-12-01T10:50:27.163Z,34.08
2018-12-01T10:53:06.705Z,31.45
2018-12-01T10:55:37.931Z,29.48
2018-12-01T10:58:10.592Z,28.57
2018-12-01T11:00:44.720Z,38.10
2018-12-01T11:03:18.836Z,35.20
2018-12-01T11:05:53.427Z,31.73
2018-12-01T11:08:32.831Z,28.73
2018-12-01T11:11:11.550Z,30.37
2018-12-01T11:13:52.489Z,24.80
2018-12-01T11:16:31.701Z,27.90
2018-12-01T11:19:09.630Z,27.00
2018-12-01T11:21:51.062Z,29.20
2018-12-01T11:24:29.152Z,29.95
2018-12-01T11:27:09.246Z,25.68
2018-12-01T11:29:48.362Z,20.90
2018-12-01T11:32:29.631Z,24.00
2018-12-01T11:35:07.618Z,22.52
2018-12-01T11:37:46.961Z,27.90
2018-12-01T11:40:24.622Z,36.88
2018-12-01T11:43:04.620Z,26.20
2018-12-01T11:45:44.562Z,24.80
2018-12-01T11:48:24.421Z,24.35
2018-12-01T11:51:04.621Z,22.62
2018-12-01T11:53:46.468Z,24.47
2018-12-01T11:56:26.977Z,31.30
2018-12-01T11:59:06.045Z,24.63
2018-12-01T12:01:45.836Z,23.25
2018-12-01T12:04:24.615Z,22.20
2018-12-01T12:07:01.856Z,20.92
2018-12-01T12:09:41.382Z,24.63
2018-12-01T12:12:20.978Z,19.37
2018-12-01T12:15:01.067Z,20.10
2018-12-01T12:17:42.057Z,18.50
2018-12-01T12:20:21.475Z,22.17
2018-12-01T12:23:01.142Z,19.85
2018-12-01T12:25:40.655Z,16.45
2018-12-01T12:28:19.699Z,22.48
2018-12-01T12:30:58.239Z,17.77
2018-12-01T12:33:36.680Z,15.58
2018-12-01T12:36:08.171Z,20.68
2018-12-01T12:38:39.657Z,15.53
2018-12-01T12:41:17.910Z,13.58
2018-12-01T12:43:46.236Z,17.67
2018-12-01T12:46:17.438Z,21.68
2018-12-01T12:48:51.444Z,26.20
2018-12-01T12:51:19.703Z,27.45
2018-12-01T12:53:49.354Z,44.23
2018-12-01T12:56:16.835Z,26.42
2018-12-01T12:58:45.144Z,30.72
2018-12-01T13:01:18.097Z,13.15
2018-12-01T13:03:56.283Z,21.20
2018-12-01T13:06:36.325Z,13.05
2018-12-01T13:09:17.367Z,18.30
2018-12-01T13:11:57.715Z,23.90
2018-12-01T13:14:39.652Z,13.00
2018-12-01T13:17:17.516Z,18.17
2018-12-01T13:19:57.193Z,18.02
2018-12-01T13:22:36.252Z,9.63
2018-12-01T13:25:15.568Z,12.95
2018-12-01T13:27:56.859Z,11.60
2018-12-01T13:30:36.525Z,23.40
2018-12-01T13:33:16.314Z,11.75
2018-12-01T13:35:59.009Z,16.25
2018-12-01T13:38:37.576Z,13.68
2018-12-01T13:41:17.091Z,9.68
2018-12-01T13:43:56.156Z,17.40
2018-12-01T13:46:29.025Z,11.05
2018-12-01T13:49:02.402Z,10.72
2018-12-01T13:51:35.660Z,21.95
2018-12-01T13:54:08.369Z,13.43
2018-12-01T13:56:44.639Z,12.10
2018-12-01T13:59:18.526Z,20.82
2018-12-01T14:01:52.873Z,15.70
2018-12-01T14:04:31.643Z,39.33
2018-12-01T14:07:11.735Z,12.15
2018-12-01T14:09:51.824Z,16.70
2018-12-01T14:12:32.713Z,11.35
2018-12-01T14:15:11.509Z,20.50
2018-12-01T14:17:51.058Z,16.57
2018-12-01T14:20:31.113Z,18.70
2018-12-01T14:23:10.828Z,8.53
2018-12-01T14:25:50.227Z,11.15
2018-12-01T14:28:31.138Z,19.52
2018-12-01T14:31:10.603Z,28.92
2018-12-01T14:33:51.145Z,30.35
2018-12-01T14:36:29.687Z,15.90
2018-12-01T14:39:08.503Z,19.12
2018-12-01T14:41:47.895Z,22.65
2018-12-01T14:44:27.938Z,18.77
2018-12-01T14:47:06.810Z,26.17
2018-12-01T14:49:45.993Z,37.48
2018-12-01T14:52:24.639Z,23.57
2018-12-01T14:55:04.556Z,17.50
2018-12-01T14:57:43.244Z,20.25
2018-12-01T15:00:26.987Z,15.98
2018-12-01T15:03:05.950Z,22.67
2018-12-01T15:05:43.995Z,27.32
2018-12-01T15:08:24.637Z,22.50
2018-12-01T15:11:03.904Z,22.05
2018-12-01T15:13:43.617Z,40.45
2018-12-01T15:16:23.141Z,26.12
2018-12-01T15:19:02.692Z,21.77
2018-12-01T15:21:42.242Z,17.75
2018-12-01T15:24:21.784Z,22.35
2018-12-01T15:27:02.854Z,29.07
2018-12-01T15:29:40.640Z,42.25
2018-12-01T15:32:22.283Z,32.63
2018-12-01T15:35:00.002Z,45.73
2018-12-01T15:37:39.438Z,37.75
2018-12-01T15:40:24.636Z,28.05
2018-12-01T15:43:04.150Z,48.42
2018-12-01T15:45:43.668Z,61.15
2018-12-01T15:48:23.456Z,36.40
2018-12-01T15:51:04.636Z,22.22
2018-12-01T15:53:44.091Z,19.82
2018-12-01T15:56:24.635Z,30.80
2018-12-01T15:59:02.171Z,36.98
2018-12-01T16:01:41.185Z,90.30
2018-12-01T16:04:20.580Z,39.85
2018-12-01T16:07:00.846Z,29.60
2018-12-01T16:09:39.808Z,22.75
2018-12-01T16:12:18.778Z,43.95
2018-12-01T16:15:00.392Z,26.20
2018-12-01T16:17:41.236Z,18.82
2018-12-01T16:20:24.128Z,28.57
2018-12-01T16:23:04.416Z,18.95
2018-12-01T16:25:44.636Z,21.80
2018-12-01T16:28:24.201Z,24.27
2018-12-01T16:31:03.742Z,21.75
2018-12-01T16:33:43.681Z,28.65
2018-12-01T16:36:24.636Z,31.70
2018-12-01T16:39:03.742Z,29.05
2018-12-01T16:41:44.083Z,17.02
2018-12-01T16:44:24.634Z,21.50
2018-12-01T16:47:04.468Z,16.48
2018-12-01T16:49:43.931Z,14.30
2018-12-01T16:52:24.422Z,15.53
2018-12-01T16:55:01.103Z,24.50
2018-12-01T16:57:29.292Z,21.62
2018-12-01T16:59:57.240Z,18.60
2018-12-01T17:02:36.888Z,23.20
2018-12-01T17:05:10.707Z,18.35
2018-12-01T17:07:50.598Z,17.62
2018-12-01T17:10:29.412Z,15.55
2018-12-01T17:13:07.133Z,17.25
2018-12-01T17:15:45.846Z,19.12
2018-12-01T17:18:24.635Z,16.17
2018-12-01T17:20:52.686Z,17.90
2018-12-01T17:23:20.509Z,15.90
2018-12-01T17:25:56.212Z,21.20
2018-12-01T17:28:38.055Z,16.27
2018-12-01T17:31:12.220Z,16.17
2018-12-01T17:33:51.487Z,23.38
2018-12-01T17:36:29.952Z,18.00
2018-12-01T17:39:08.444Z,21.50
2018-12-01T17:41:50.539Z,19.02
2018-12-01T17:44:30.830Z,22.77
2018-12-01T17:47:09.571Z,21.68
2018-12-01T17:49:50.012Z,19.27
2018-12-01T17:52:28.024Z,19.42
2018-12-01T17:55:06.655Z,19.37
2018-12-01T17:57:44.634Z,27.00
2018-12-01T18:00:27.106Z,23.15
2018-12-01T18:05:49.808Z,19.17
2018-12-01T18:08:28.798Z,26.05
2018-12-01T18:11:09.971Z,17.92
2018-12-01T18:13:49.339Z,22.25
2018-12-01T18:16:28.348Z,18.82
2018-12-01T18:19:06.640Z,19.73
2018-12-01T18:21:47.607Z,15.95
2018-12-01T18:24:27.121Z,19.60
2018-12-01T18:27:06.989Z,20.52
2018-12-01T18:29:44.640Z,21.60
2018-12-01T18:32:24.637Z,20.10
2018-12-01T18:35:03.875Z,21.40
2018-12-01T18:37:44.488Z,21.17
2018-12-01T18:40:28.521Z,23.70
2018-12-01T18:43:07.139Z,21.27
2018-12-01T18:45:45.925Z,26.12
2018-12-01T18:48:24.970Z,23.25
2018-12-01T18:51:03.762Z,26.77
2018-12-01T18:53:39.225Z,22.87
2018-12-01T18:56:14.633Z,24.07
2018-12-01T18:58:54.307Z,21.00
2018-12-01T19:01:35.851Z,30.30
2018-12-01T19:04:14.633Z,27.07
2018-12-01T19:06:53.655Z,25.10
2018-12-01T19:09:33.698Z,21.57
2018-12-01T19:12:13.266Z,24.57
2018-12-01T19:14:51.188Z,68.20
2018-12-01T19:17:32.222Z,33.38
2018-12-01T19:20:10.368Z,30.85
2018-12-01T19:22:51.783Z,27.00
2018-12-01T19:25:36.786Z,25.05
2018-12-01T19:28:15.512Z,28.00
2018-12-01T19:30:54.210Z,26.73
2018-12-01T19:33:34.072Z,25.97
2018-12-01T19:36:15.538Z,29.55
2018-12-01T19:38:53.451Z,27.50
2018-12-01T19:41:36.271Z,27.52
2018-12-01T19:44:14.358Z,28.70
2018-12-01T19:46:54.086Z,27.67
2018-12-01T19:49:33.617Z,24.40
2018-12-01T19:52:11.426Z,25.62
2018-12-01T19:54:51.603Z,29.20
2018-12-01T19:57:30.369Z,61.70
2018-12-01T20:00:11.285Z,36.98
2018-12-01T20:02:51.048Z,34.83
2018-12-01T20:05:32.667Z,26.00
2018-12-01T20:08:09.734Z,38.58
2018-12-01T20:10:54.631Z,34.10
2018-12-01T20:13:34.631Z,30.97
2018-12-01T20:16:15.883Z,61.18
2018-12-01T20:18:54.632Z,24.10
2018-12-01T20:21:33.645Z,28.62
2018-12-01T20:24:13.408Z,26.90
2018-12-01T20:26:48.685Z,27.90
2018-12-01T20:29:28.564Z,26.25
2018-12-01T20:32:02.578Z,29.27
2018-12-01T20:34:40.973Z,28.83
2018-12-01T20:37:19.489Z,25.77
2018-12-01T20:39:59.329Z,28.87
2018-12-01T20:42:40.923Z,25.27
2018-12-01T20:45:23.961Z,27.50
2018-12-01T20:48:04.632Z,26.70
2018-12-01T20:50:42.294Z,29.80
2018-12-01T20:53:23.062Z,26.68
2018-12-01T20:56:04.632Z,26.68
2018-12-01T20:58:43.616Z,25.23
2018-12-01T21:01:21.856Z,36.93
2018-12-01T21:04:01.372Z,29.20
2018-12-01T21:06:40.866Z,29.98
2018-12-01T21:09:20.207Z,30.25
2018-12-01T21:12:01.298Z,26.90
2018-12-01T21:14:41.414Z,28.32
2018-12-01T21:17:21.909Z,31.80
2018-12-01T21:20:02.819Z,24.70
2018-12-01T21:22:41.061Z,23.12
2018-12-01T21:25:24.127Z,24.43
2018-12-01T21:28:03.943Z,26.17
2018-12-01T21:30:44.058Z,24.05
2018-12-01T21:33:25.705Z,25.92
2018-12-01T21:36:04.634Z,33.55
2018-12-01T21:38:44.631Z,66.53
2018-12-01T21:41:17.927Z,73.57
2018-12-01T21:43:58.145Z,27.58
2018-12-01T21:46:36.407Z,25.95
2018-12-01T21:49:14.631Z,24.35
2018-12-01T21:51:53.094Z,26.80
2018-12-01T21:54:33.032Z,22.15
2018-12-01T21:57:11.524Z,25.50
2018-12-01T21:59:51.790Z,28.85
2018-12-01T22:02:31.831Z,27.65
2018-12-01T22:05:10.900Z,27.32
2018-12-01T22:07:49.664Z,23.42
2018-12-01T22:10:30.653Z,26.77
2018-12-01T22:13:10.549Z,25.45
2018-12-01T22:15:47.728Z,23.38
2018-12-01T22:18:27.927Z,24.37
2018-12-01T22:21:03.501Z,22.50
2018-12-01T22:23:44.631Z,24.60
2018-12-01T22:26:23.880Z,23.02
2018-12-01T22:29:06.120Z,21.62
2018-12-01T22:31:45.510Z,24.50
2018-12-01T22:34:24.603Z,24.10
2018-12-01T22:37:02.320Z,26.10
2018-12-01T22:39:41.291Z,30.48
2018-12-01T22:42:18.765Z,28.90
2018-12-01T22:44:58.541Z,24.77
2018-12-01T22:47:36.308Z,26.15
2018-12-01T22:50:14.634Z,24.90
2018-12-01T22:52:53.640Z,27.02
2018-12-01T22:55:34.630Z,22.17
2018-12-01T22:58:16.848Z,25.00
2018-12-01T23:00:58.014Z,24.52
2018-12-01T23:03:41.855Z,25.08
2018-12-01T23:06:21.346Z,26.40
2018-12-01T23:08:59.588Z,21.87
2018-12-01T23:11:40.306Z,23.62
2018-12-01T23:14:18.973Z,29.45
2018-12-01T23:16:59.215Z,24.10
2018-12-01T23:19:39.277Z,19.87
2018-12-01T23:22:18.243Z,27.00
2018-12-01T23:24:56.730Z,24.20
2018-12-01T23:27:36.541Z,24.15
2018-12-01T23:30:24.593Z,22.93
2018-12-01T23:33:04.630Z,29.23
2018-12-01T23:35:43.303Z,27.77
2018-12-01T23:38:24.266Z,22.60
2018-12-01T23:41:04.531Z,26.07
2018-12-01T23:43:43.951Z,24.05
2018-12-01T23:46:24.630Z,24.82
2018-12-01T23:49:03.481Z,27.80
2018-12-01T23:51:41.953Z,25.27
2018-12-01T23:54:21.417Z,25.62
2018-12-01T23:57:00.835Z,26.35
2018-12-01T23:59:35.907Z,23.35
